sensor_id;sensor_type;location;lat;lon;timestamp;pressure;altitude;pressure_sealevel;temperature;humidity
76448;BME280;65284;51.040;13.722;2023-08-30T00:00:48;99076.56;;;12.80;100.00
76448;BME280;65284;51.040;13.722;2023-08-30T00:03:15;99080.09;;;12.87;100.00
76448;BME280;65284;51.040;13.722;2023-08-30T00:05:42;99090.13;;;12.85;100.00
76448;BME280;65284;51.040;13.722;2023-08-30T00:08:08;99105.09;;;12.86;100.00
76448;BME280;65284;51.040;13.722;2023-08-30T00:10:35;99114.94;;;12.85;100.00
76448;BME280;65284;51.040;13.722;2023-08-30T00:13:04;99115.75;;;12.86;100.00
76448;BME280;65284;51.040;13.722;2023-08-30T00:15:30;99113.09;;;12.86;100.00
76448;BME280;65284;51.040;13.722;2023-08-30T00:17:57;99106.97;;;12.92;100.00
76448;BME280;65284;51.040;13.722;2023-08-30T00:20:23;99112.28;;;12.92;100.00
76448;BME280;65284;51.040;13.722;2023-08-30T00:22:50;99113.72;;;12.88;100.00
76448;BME280;65284;51.040;13.722;2023-08-30T00:25:17;99108.44;;;13.01;100.00
76448;BME280;65284;51.040;13.722;2023-08-30T00:27:43;99101.63;;;12.92;100.00
76448;BME280;65284;51.040;13.722;2023-08-30T00:30:10;99104.53;;;12.97;100.00
76448;BME280;65284;51.040;13.722;2023-08-30T00:32:37;99104.50;;;12.90;100.00
76448;BME280;65284;51.040;13.722;2023-08-30T00:35:04;99112.69;;;12.89;100.00
76448;BME280;65284;51.040;13.722;2023-08-30T00:37:30;99121.50;;;12.89;100.00
76448;BME280;65284;51.040;13.722;2023-08-30T00:39:57;99118.66;;;12.91;100.00
76448;BME280;65284;51.040;13.722;2023-08-30T00:42:26;99120.91;;;12.94;100.00
76448;BME280;65284;51.040;13.722;2023-08-30T00:44:53;99127.88;;;12.95;100.00
76448;BME280;65284;51.040;13.722;2023-08-30T00:47:20;99126.66;;;12.97;100.00
76448;BME280;65284;51.040;13.722;2023-08-30T00:49:47;99122.56;;;12.95;100.00
76448;BME280;65284;51.040;13.722;2023-08-30T00:52:15;99111.09;;;13.01;100.00
76448;BME280;65284;51.040;13.722;2023-08-30T00:54:42;99115.59;;;13.01;100.00
76448;BME280;65284;51.040;13.722;2023-08-30T00:57:09;99118.94;;;13.09;100.00
76448;BME280;65284;51.040;13.722;2023-08-30T00:59:36;99118.13;;;13.15;100.00
76448;BME280;65284;51.040;13.722;2023-08-30T01:02:03;99118.13;;;13.15;100.00
76448;BME280;65284;51.040;13.722;2023-08-30T01:04:30;99117.72;;;13.12;100.00
76448;BME280;65284;51.040;13.722;2023-08-30T01:06:57;99129.59;;;13.09;100.00
76448;BME280;65284;51.040;13.722;2023-08-30T01:09:24;99126.09;;;13.09;100.00
76448;BME280;65284;51.040;13.722;2023-08-30T01:12:10;99121.66;;;13.23;100.00
76448;BME280;65284;51.040;13.722;2023-08-30T01:14:52;99121.06;;;13.27;100.00
76448;BME280;65284;51.040;13.722;2023-08-30T01:17:20;99113.66;;;13.23;100.00
76448;BME280;65284;51.040;13.722;2023-08-30T01:19:53;99107.47;;;13.15;100.00
76448;BME280;65284;51.040;13.722;2023-08-30T01:27:42;99113.63;;;13.16;100.00
76448;BME280;65284;51.040;13.722;2023-08-30T01:30:10;99102.13;;;13.15;100.00
76448;BME280;65284;51.040;13.722;2023-08-30T01:32:38;99093.94;;;13.10;100.00
76448;BME280;65284;51.040;13.722;2023-08-30T01:35:06;99094.34;;;13.14;100.00
76448;BME280;65284;51.040;13.722;2023-08-30T01:37:33;99101.53;;;13.13;100.00
76448;BME280;65284;51.040;13.722;2023-08-30T01:40:01;99101.31;;;13.08;100.00
76448;BME280;65284;51.040;13.722;2023-08-30T01:42:30;99107.06;;;13.12;100.00
76448;BME280;65284;51.040;13.722;2023-08-30T01:44:58;99104.59;;;13.10;100.00
76448;BME280;65284;51.040;13.722;2023-08-30T01:47:28;99091.88;;;13.12;100.00
76448;BME280;65284;51.040;13.722;2023-08-30T01:49:55;99082.88;;;13.13;100.00
76448;BME280;65284;51.040;13.722;2023-08-30T01:52:23;99077.56;;;13.20;100.00
76448;BME280;65284;51.040;13.722;2023-08-30T01:54:53;99079.16;;;13.14;100.00
76448;BME280;65284;51.040;13.722;2023-08-30T01:57:20;99079.22;;;13.28;100.00
76448;BME280;65284;51.040;13.722;2023-08-30T01:59:46;99080.47;;;13.25;100.00
76448;BME280;65284;51.040;13.722;2023-08-30T02:02:13;99073.66;;;13.23;100.00
76448;BME280;65284;51.040;13.722;2023-08-30T02:04:39;99074.66;;;13.21;100.00
76448;BME280;65284;51.040;13.722;2023-08-30T02:07:14;99078.78;;;13.24;100.00
76448;BME280;65284;51.040;13.722;2023-08-30T02:09:50;99080.47;;;13.25;100.00
76448;BME280;65284;51.040;13.722;2023-08-30T02:12:22;99073.44;;;13.17;100.00
76448;BME280;65284;51.040;13.722;2023-08-30T02:14:51;99075.88;;;13.19;100.00
76448;BME280;65284;51.040;13.722;2023-08-30T02:17:19;99078.78;;;13.17;100.00
76448;BME280;65284;51.040;13.722;2023-08-30T02:19:47;99081.44;;;13.17;100.00
76448;BME280;65284;51.040;13.722;2023-08-30T02:22:13;99084.28;;;13.16;100.00
76448;BME280;65284;51.040;13.722;2023-08-30T02:24:40;99081.44;;;13.17;100.00
76448;BME280;65284;51.040;13.722;2023-08-30T02:27:06;99090.88;;;13.13;100.00
76448;BME280;65284;51.040;13.722;2023-08-30T02:29:32;99089.44;;;13.17;100.00
76448;BME280;65284;51.040;13.722;2023-08-30T02:31:59;99096.81;;;13.15;100.00
76448;BME280;65284;51.040;13.722;2023-08-30T02:34:25;99101.31;;;13.15;100.00
76448;BME280;65284;51.040;13.722;2023-08-30T02:36:52;99110.34;;;13.14;100.00
76448;BME280;65284;51.040;13.722;2023-08-30T02:39:18;99111.41;;;13.19;100.00
76448;BME280;65284;51.040;13.722;2023-08-30T02:41:45;99107.69;;;13.20;100.00
76448;BME280;65284;51.040;13.722;2023-08-30T02:44:12;99103.78;;;13.16;100.00
76448;BME280;65284;51.040;13.722;2023-08-30T02:46:38;99099.28;;;13.17;100.00
76448;BME280;65284;51.040;13.722;2023-08-30T02:49:05;99097.44;;;13.17;100.00
76448;BME280;65284;51.040;13.722;2023-08-30T02:51:32;99092.72;;;13.19;100.00
76448;BME280;65284;51.040;13.722;2023-08-30T02:53:58;99094.75;;;13.17;100.00
76448;BME280;65284;51.040;13.722;2023-08-30T02:56:25;99089.44;;;13.17;100.00
76448;BME280;65284;51.040;13.722;2023-08-30T02:58:51;99100.13;;;13.24;100.00
76448;BME280;65284;51.040;13.722;2023-08-30T03:01:18;99087.41;;;13.19;100.00
76448;BME280;65284;51.040;13.722;2023-08-30T03:03:47;99093.56;;;13.20;100.00
76448;BME280;65284;51.040;13.722;2023-08-30T03:06:14;99098.47;;;13.16;100.00
76448;BME280;65284;51.040;13.722;2023-08-30T03:08:40;99097.84;;;13.14;100.00
76448;BME280;65284;51.040;13.722;2023-08-30T03:11:11;99096.19;;;13.13;100.00
76448;BME280;65284;51.040;13.722;2023-08-30T03:13:39;99111.41;;;13.19;100.00
76448;BME280;65284;51.040;13.722;2023-08-30T03:16:15;99109.94;;;13.10;100.00
76448;BME280;65284;51.040;13.722;2023-08-30T03:18:43;99108.25;;;13.09;100.00
76448;BME280;65284;51.040;13.722;2023-08-30T03:21:10;99108.91;;;13.11;100.00
76448;BME280;65284;51.040;13.722;2023-08-30T03:23:37;99117.28;;;13.08;100.00
76448;BME280;65284;51.040;13.722;2023-08-30T03:26:15;99116.16;;;13.31;100.00
76448;BME280;65284;51.040;13.722;2023-08-30T03:28:43;99104.63;;;13.17;100.00
76448;BME280;65284;51.040;13.722;2023-08-30T03:31:17;99108.28;;;13.16;100.00
76448;BME280;65284;51.040;13.722;2023-08-30T03:33:45;99096.41;;;13.18;100.00
76448;BME280;65284;51.040;13.722;2023-08-30T03:36:13;99098.47;;;13.16;100.00
76448;BME280;65284;51.040;13.722;2023-08-30T03:38:40;99101.31;;;13.15;100.00
76448;BME280;65284;51.040;13.722;2023-08-30T03:41:07;99101.13;;;13.16;100.00
76448;BME280;65284;51.040;13.722;2023-08-30T03:43:33;99106.66;;;13.15;100.00
76448;BME280;65284;51.040;13.722;2023-08-30T03:46:00;99107.88;;;13.12;100.00
76448;BME280;65284;51.040;13.722;2023-08-30T03:48:27;99111.22;;;13.28;100.00
76448;BME280;65284;51.040;13.722;2023-08-30T03:50:54;99113.22;;;13.19;100.00
76448;BME280;65284;51.040;13.722;2023-08-30T03:53:22;99106.66;;;13.15;100.00
76448;BME280;65284;51.040;13.722;2023-08-30T03:55:48;99103.41;;;13.19;100.00
76448;BME280;65284;51.040;13.722;2023-08-30T03:58:16;99099.28;;;13.24;100.00
76448;BME280;65284;51.040;13.722;2023-08-30T04:00:42;99102.94;;;13.16;100.00
76448;BME280;65284;51.040;13.722;2023-08-30T04:03:09;99105.44;;;13.17;100.00
76448;BME280;65284;51.040;13.722;2023-08-30T04:05:37;99105.84;;;13.14;100.00
76448;BME280;65284;51.040;13.722;2023-08-30T04:08:05;99094.56;;;13.19;100.00
76448;BME280;65284;51.040;13.722;2023-08-30T04:10:39;99101.72;;;13.18;100.00
76448;BME280;65284;51.040;13.722;2023-08-30T04:13:07;99106.25;;;13.18;100.00
76448;BME280;65284;51.040;13.722;2023-08-30T04:15:38;99106.66;;;13.21;100.00
76448;BME280;65284;51.040;13.722;2023-08-30T04:18:06;99106.06;;;13.19;100.00
76448;BME280;65284;51.040;13.722;2023-08-30T04:20:34;99094.16;;;13.22;100.00
76448;BME280;65284;51.040;13.722;2023-08-30T04:23:01;99090.66;;;13.21;100.00
76448;BME280;65284;51.040;13.722;2023-08-30T04:25:29;99093.16;;;13.23;100.00
76448;BME280;65284;51.040;13.722;2023-08-30T04:27:56;99087.03;;;13.29;100.00
76448;BME280;65284;51.040;13.722;2023-08-30T04:30:23;99091.97;;;13.32;100.00
76448;BME280;65284;51.040;13.722;2023-08-30T04:32:49;99098.94;;;13.27;100.00
76448;BME280;65284;51.040;13.722;2023-08-30T04:35:16;99096.00;;;13.21;100.00
76448;BME280;65284;51.040;13.722;2023-08-30T04:37:42;99098.94;;;13.27;100.00
76448;BME280;65284;51.040;13.722;2023-08-30T04:40:09;99107.97;;;13.26;100.00
76448;BME280;65284;51.040;13.722;2023-08-30T04:42:36;99099.28;;;13.24;100.00
76448;BME280;65284;51.040;13.722;2023-08-30T04:45:04;99105.84;;;13.21;100.00
76448;BME280;65284;51.040;13.722;2023-08-30T04:47:32;99096.00;;;13.21;100.00
76448;BME280;65284;51.040;13.722;2023-08-30T04:49:59;99102.22;;;13.29;100.00
76448;BME280;65284;51.040;13.722;2023-08-30T04:52:26;99107.28;;;13.24;100.00
76448;BME280;65284;51.040;13.722;2023-08-30T04:54:52;99109.53;;;13.20;100.00
76448;BME280;65284;51.040;13.722;2023-08-30T04:57:19;99107.47;;;13.22;100.00
76448;BME280;65284;51.040;13.722;2023-08-30T04:59:45;99120.25;;;13.27;100.00
76448;BME280;65284;51.040;13.722;2023-08-30T05:02:12;99124.56;;;13.28;100.00
76448;BME280;65284;51.040;13.722;2023-08-30T05:04:38;99125.03;;;13.38;100.00
76448;BME280;65284;51.040;13.722;2023-08-30T05:07:05;99122.97;;;13.40;100.00
76448;BME280;65284;51.040;13.722;2023-08-30T05:09:32;99129.72;;;13.36;100.00
76448;BME280;65284;51.040;13.722;2023-08-30T05:11:58;99134.66;;;13.39;100.00
76448;BME280;65284;51.040;13.722;2023-08-30T05:14:25;99136.72;;;13.43;100.00
76448;BME280;65284;51.040;13.722;2023-08-30T05:16:51;99132.63;;;13.41;100.00
76448;BME280;65284;51.040;13.722;2023-08-30T05:19:18;99129.31;;;13.39;100.00
76448;BME280;65284;51.040;13.722;2023-08-30T05:21:45;99128.28;;;13.33;100.00
76448;BME280;65284;51.040;13.722;2023-08-30T05:24:11;99125.66;;;13.47;100.00
76448;BME280;65284;51.040;13.722;2023-08-30T05:26:38;99115.41;;;13.50;100.00
76448;BME280;65284;51.040;13.722;2023-08-30T05:29:04;99115.97;;;13.39;100.00
76448;BME280;65284;51.040;13.722;2023-08-30T05:31:30;99117.44;;;13.48;100.00
76448;BME280;65284;51.040;13.722;2023-08-30T05:33:57;99121.13;;;13.47;100.00
76448;BME280;65284;51.040;13.722;2023-08-30T05:36:23;99123.19;;;13.45;100.00
76448;BME280;65284;51.040;13.722;2023-08-30T05:38:50;99119.91;;;13.43;100.00
76448;BME280;65284;51.040;13.722;2023-08-30T05:41:16;99127.50;;;13.46;100.00
76448;BME280;65284;51.040;13.722;2023-08-30T05:43:43;99132.63;;;13.54;100.00
76448;BME280;65284;51.040;13.722;2023-08-30T05:46:09;99129.16;;;13.60;100.00
76448;BME280;65284;51.040;13.722;2023-08-30T05:48:41;99132.84;;;13.53;100.00
76448;BME280;65284;51.040;13.722;2023-08-30T05:51:07;99123.41;;;13.50;100.00
76448;BME280;65284;51.040;13.722;2023-08-30T05:53:34;99131.22;;;13.52;100.00
76448;BME280;65284;51.040;13.722;2023-08-30T05:56:01;99129.78;;;13.62;100.00
76448;BME280;65284;51.040;13.722;2023-08-30T05:58:27;99125.91;;;13.58;100.00
76448;BME280;65284;51.040;13.722;2023-08-30T06:00:54;99118.28;;;13.55;100.00
76448;BME280;65284;51.040;13.722;2023-08-30T06:03:20;99119.56;;;13.79;100.00
76448;BME280;65284;51.040;13.722;2023-08-30T06:05:47;99124.91;;;13.73;100.00
76448;BME280;65284;51.040;13.722;2023-08-30T06:08:15;99117.72;;;13.67;100.00
76448;BME280;65284;51.040;13.722;2023-08-30T06:10:41;99115.63;;;13.75;100.00
76448;BME280;65284;51.040;13.722;2023-08-30T06:13:08;99117.50;;;13.75;100.00
76448;BME280;65284;51.040;13.722;2023-08-30T06:15:35;99112.56;;;13.72;100.00
76448;BME280;65284;51.040;13.722;2023-08-30T06:18:01;99120.16;;;13.61;100.00
76448;BME280;65284;51.040;13.722;2023-08-30T06:20:29;99115.84;;;13.87;100.00
76448;BME280;65284;51.040;13.722;2023-08-30T06:22:58;99118.94;;;13.84;100.00
76448;BME280;65284;51.040;13.722;2023-08-30T06:25:25;99119.97;;;13.83;100.00
76448;BME280;65284;51.040;13.722;2023-08-30T06:27:56;99126.94;;;13.84;100.00
76448;BME280;65284;51.040;13.722;2023-08-30T06:30:23;99116.69;;;13.74;100.00
76448;BME280;65284;51.040;13.722;2023-08-30T06:32:49;99118.75;;;13.79;100.00
76448;BME280;65284;51.040;13.722;2023-08-30T06:35:16;99117.94;;;13.85;100.00
76448;BME280;65284;51.040;13.722;2023-08-30T06:37:42;99124.09;;;13.92;100.00
76448;BME280;65284;51.040;13.722;2023-08-30T06:40:09;99124.06;;;13.99;100.00
76448;BME280;65284;51.040;13.722;2023-08-30T06:42:36;99127.38;;;13.94;100.00
76448;BME280;65284;51.040;13.722;2023-08-30T06:45:03;99125.34;;;14.03;100.00
76448;BME280;65284;51.040;13.722;2023-08-30T06:47:30;99116.69;;;14.01;100.00
76448;BME280;65284;51.040;13.722;2023-08-30T06:49:57;99129.44;;;14.05;100.00
76448;BME280;65284;51.040;13.722;2023-08-30T06:52:23;99126.97;;;14.24;100.00
76448;BME280;65284;51.040;13.722;2023-08-30T06:54:50;99135.19;;;14.16;100.00
76448;BME280;65284;51.040;13.722;2023-08-30T06:57:16;99122.44;;;14.24;100.00
76448;BME280;65284;51.040;13.722;2023-08-30T06:59:43;99133.94;;;14.18;100.00
76448;BME280;65284;51.040;13.722;2023-08-30T07:02:09;99130.69;;;14.23;100.00
76448;BME280;65284;51.040;13.722;2023-08-30T07:04:36;99130.06;;;14.21;100.00
76448;BME280;65284;51.040;13.722;2023-08-30T07:07:02;99122.03;;;14.21;100.00
76448;BME280;65284;51.040;13.722;2023-08-30T07:09:34;99125.72;;;14.33;100.00
76448;BME280;65284;51.040;13.722;2023-08-30T07:12:01;99125.75;;;14.26;100.00
76448;BME280;65284;51.040;13.722;2023-08-30T07:14:27;99124.50;;;14.29;100.00
76448;BME280;65284;51.040;13.722;2023-08-30T07:16:54;99136.63;;;14.38;100.00
76448;BME280;65284;51.040;13.722;2023-08-30T07:19:20;99136.00;;;14.49;98.28
76448;BME280;65284;51.040;13.722;2023-08-30T07:21:47;99139.06;;;14.46;99.07
76448;BME280;65284;51.040;13.722;2023-08-30T07:24:14;99132.91;;;14.39;99.84
76448;BME280;65284;51.040;13.722;2023-08-30T07:26:40;99134.97;;;14.37;99.74
76448;BME280;65284;51.040;13.722;2023-08-30T07:29:08;99130.28;;;14.52;99.05
76448;BME280;65284;51.040;13.722;2023-08-30T07:31:35;99128.59;;;14.51;98.40
76448;BME280;65284;51.040;13.722;2023-08-30T07:34:02;99127.78;;;14.57;97.75
76448;BME280;65284;51.040;13.722;2023-08-30T07:36:29;99132.69;;;14.61;98.29
76448;BME280;65284;51.040;13.722;2023-08-30T07:39:12;99132.09;;;14.59;96.40
76448;BME280;65284;51.040;13.722;2023-08-30T07:41:39;99133.53;;;14.61;96.32
76448;BME280;65284;51.040;13.722;2023-08-30T07:44:05;99148.31;;;14.64;95.93
76448;BME280;65284;51.040;13.722;2023-08-30T07:46:32;99137.63;;;14.64;95.85
76448;BME280;65284;51.040;13.722;2023-08-30T07:48:58;99140.31;;;14.70;95.72
76448;BME280;65284;51.040;13.722;2023-08-30T07:51:25;99138.88;;;14.68;93.90
76448;BME280;65284;51.040;13.722;2023-08-30T07:53:51;99149.72;;;14.73;93.56
76448;BME280;65284;51.040;13.722;2023-08-30T07:56:17;99143.59;;;14.79;93.48
76448;BME280;65284;51.040;13.722;2023-08-30T07:58:44;99146.25;;;14.72;94.47
76448;BME280;65284;51.040;13.722;2023-08-30T08:01:10;99147.47;;;14.83;93.05
76448;BME280;65284;51.040;13.722;2023-08-30T08:03:37;99145.41;;;14.85;93.46
76448;BME280;65284;51.040;13.722;2023-08-30T08:06:14;99140.25;;;14.84;94.00
76448;BME280;65284;51.040;13.722;2023-08-30T08:08:44;99144.16;;;14.94;93.43
76448;BME280;65284;51.040;13.722;2023-08-30T08:11:10;99143.09;;;14.95;94.03
76448;BME280;65284;51.040;13.722;2023-08-30T08:13:37;99147.84;;;14.93;92.76
76448;BME280;65284;51.040;13.722;2023-08-30T08:16:04;99148.66;;;15.00;93.11
76448;BME280;65284;51.040;13.722;2023-08-30T08:18:30;99143.66;;;15.11;91.33
76448;BME280;65284;51.040;13.722;2023-08-30T08:20:57;99138.91;;;15.19;92.18
76448;BME280;65284;51.040;13.722;2023-08-30T08:23:23;99133.56;;;15.19;92.35
76448;BME280;65284;51.040;13.722;2023-08-30T08:25:57;99135.75;;;15.29;90.97
76448;BME280;65284;51.040;13.722;2023-08-30T08:28:24;99128.41;;;15.24;91.25
76448;BME280;65284;51.040;13.722;2023-08-30T08:30:50;99125.06;;;15.36;90.25
76448;BME280;65284;51.040;13.722;2023-08-30T08:33:17;99128.78;;;15.28;91.02
76448;BME280;65284;51.040;13.722;2023-08-30T08:35:44;99116.84;;;15.31;90.96
76448;BME280;65284;51.040;13.722;2023-08-30T08:38:10;99115.78;;;15.38;90.96
76448;BME280;65284;51.040;13.722;2023-08-30T08:40:37;99112.69;;;15.41;89.58
76448;BME280;65284;51.040;13.722;2023-08-30T08:43:12;99108.47;;;15.59;89.49
76448;BME280;65284;51.040;13.722;2023-08-30T08:45:39;99110.34;;;15.52;89.58
76448;BME280;65284;51.040;13.722;2023-08-30T08:48:06;99112.94;;;15.65;88.31
76448;BME280;65284;51.040;13.722;2023-08-30T08:50:34;99102.88;;;15.60;89.35
76448;BME280;65284;51.040;13.722;2023-08-30T08:53:01;99108.88;;;15.56;89.36
76448;BME280;65284;51.040;13.722;2023-08-30T08:55:29;99099.44;;;15.46;89.37
76448;BME280;65284;51.040;13.722;2023-08-30T08:57:58;99109.28;;;15.53;89.70
76448;BME280;65284;51.040;13.722;2023-08-30T09:00:25;99109.72;;;15.56;88.82
76448;BME280;65284;51.040;13.722;2023-08-30T09:02:53;99104.91;;;15.65;88.38
76448;BME280;65284;51.040;13.722;2023-08-30T09:05:20;99103.13;;;15.59;88.51
76448;BME280;65284;51.040;13.722;2023-08-30T09:07:48;99111.13;;;15.90;87.61
76448;BME280;65284;51.040;13.722;2023-08-30T09:10:15;99110.25;;;15.97;87.02
76448;BME280;65284;51.040;13.722;2023-08-30T09:12:41;99108.31;;;15.85;89.26
76448;BME280;65284;51.040;13.722;2023-08-30T09:15:08;99107.22;;;15.93;87.83
76448;BME280;65284;51.040;13.722;2023-08-30T09:17:36;99098.41;;;15.86;88.72
76448;BME280;65284;51.040;13.722;2023-08-30T09:20:07;99101.75;;;16.06;88.01
76448;BME280;65284;51.040;13.722;2023-08-30T09:22:41;99104.03;;;16.03;87.58
76448;BME280;65284;51.040;13.722;2023-08-30T09:25:09;99095.03;;;16.22;87.21
76448;BME280;65284;51.040;13.722;2023-08-30T09:27:39;99099.72;;;16.27;87.09
76448;BME280;65284;51.040;13.722;2023-08-30T09:30:08;99093.22;;;16.16;86.31
76448;BME280;65284;51.040;13.722;2023-08-30T09:32:40;99092.38;;;16.41;85.15
76448;BME280;65284;51.040;13.722;2023-08-30T09:35:09;99100.41;;;16.41;84.08
76448;BME280;65284;51.040;13.722;2023-08-30T09:37:35;99104.00;;;16.53;82.23
76448;BME280;65284;51.040;13.722;2023-08-30T09:40:02;99100.03;;;16.37;83.94
76448;BME280;65284;51.040;13.722;2023-08-30T09:42:29;99104.88;;;16.47;82.93
76448;BME280;65284;51.040;13.722;2023-08-30T09:44:56;99110.03;;;16.48;81.35
76448;BME280;65284;51.040;13.722;2023-08-30T09:47:26;99098.44;;;16.29;83.09
76448;BME280;65284;51.040;13.722;2023-08-30T09:49:58;99110.69;;;16.44;84.07
76448;BME280;65284;51.040;13.722;2023-08-30T09:52:25;99107.13;;;16.50;84.58
76448;BME280;65284;51.040;13.722;2023-08-30T09:54:52;99112.66;;;16.55;82.73
76448;BME280;65284;51.040;13.722;2023-08-30T09:57:20;99109.97;;;16.73;81.07
76448;BME280;65284;51.040;13.722;2023-08-30T09:59:57;99104.91;;;16.65;80.40
76448;BME280;65284;51.040;13.722;2023-08-30T10:02:23;99102.97;;;16.72;81.30
76448;BME280;65284;51.040;13.722;2023-08-30T10:04:50;99102.16;;;16.72;82.00
76448;BME280;65284;51.040;13.722;2023-08-30T10:07:18;99102.97;;;16.72;81.20
76448;BME280;65284;51.040;13.722;2023-08-30T10:09:45;99092.56;;;16.82;79.76
76448;BME280;65284;51.040;13.722;2023-08-30T10:12:32;99096.38;;;16.93;79.50
76448;BME280;65284;51.040;13.722;2023-08-30T10:14:59;99089.31;;;16.80;81.22
76448;BME280;65284;51.040;13.722;2023-08-30T10:17:28;99088.69;;;16.97;81.55
76448;BME280;65284;51.040;13.722;2023-08-30T10:19:56;99087.94;;;17.08;79.98
76448;BME280;65284;51.040;13.722;2023-08-30T10:22:23;99078.16;;;17.14;79.76
76448;BME280;65284;51.040;13.722;2023-08-30T10:24:59;99089.41;;;17.22;77.92
76448;BME280;65284;51.040;13.722;2023-08-30T10:27:53;99083.13;;;17.28;78.75
76448;BME280;65284;51.040;13.722;2023-08-30T10:30:21;99088.66;;;17.34;76.68
76448;BME280;65284;51.040;13.722;2023-08-30T10:32:48;99083.72;;;17.31;76.25
76448;BME280;65284;51.040;13.722;2023-08-30T10:35:17;99081.56;;;17.21;75.53
76448;BME280;65284;51.040;13.722;2023-08-30T10:37:54;99083.84;;;17.36;76.05
76448;BME280;65284;51.040;13.722;2023-08-30T10:40:22;99096.81;;;17.39;76.72
76448;BME280;65284;51.040;13.722;2023-08-30T10:43:04;99097.19;;;17.42;76.63
76448;BME280;65284;51.040;13.722;2023-08-30T10:45:31;99095.19;;;17.38;75.86
76448;BME280;65284;51.040;13.722;2023-08-30T10:47:58;99087.00;;;17.33;76.94
76448;BME280;65284;51.040;13.722;2023-08-30T10:50:33;99096.56;;;17.28;77.43
76448;BME280;65284;51.040;13.722;2023-08-30T10:53:00;99096.75;;;17.45;76.49
76448;BME280;65284;51.040;13.722;2023-08-30T10:55:27;99099.19;;;17.47;76.20
76448;BME280;65284;51.040;13.722;2023-08-30T10:58:03;99099.78;;;17.49;74.22
76448;BME280;65284;51.040;13.722;2023-08-30T11:00:31;99096.03;;;17.50;75.40
76448;BME280;65284;51.040;13.722;2023-08-30T11:02:58;99097.34;;;17.59;75.01
76448;BME280;65284;51.040;13.722;2023-08-30T11:05:26;99096.53;;;17.89;73.90
76448;BME280;65284;51.040;13.722;2023-08-30T11:07:53;99092.78;;;17.78;73.34
76448;BME280;65284;51.040;13.722;2023-08-30T11:10:21;99094.88;;;17.88;73.58
76448;BME280;65284;51.040;13.722;2023-08-30T11:12:48;99096.94;;;17.74;72.89
76448;BME280;65284;51.040;13.722;2023-08-30T11:15:16;99084.63;;;17.85;73.07
76448;BME280;65284;51.040;13.722;2023-08-30T11:17:43;99093.88;;;17.70;73.08
76448;BME280;65284;51.040;13.722;2023-08-30T11:20:15;99097.94;;;17.91;70.82
76448;BME280;65284;51.040;13.722;2023-08-30T11:22:55;99090.00;;;17.96;70.49
76448;BME280;65284;51.040;13.722;2023-08-30T11:25:21;99077.50;;;17.90;70.60
76448;BME280;65284;51.040;13.722;2023-08-30T11:27:48;99079.97;;;18.15;70.31
76448;BME280;65284;51.040;13.722;2023-08-30T11:30:14;99082.56;;;18.10;70.39
76448;BME280;65284;51.040;13.722;2023-08-30T11:32:43;99076.13;;;18.35;72.03
76448;BME280;65284;51.040;13.722;2023-08-30T11:35:10;99077.50;;;18.61;71.52
76448;BME280;65284;51.040;13.722;2023-08-30T11:37:37;99073.28;;;18.77;70.44
76448;BME280;65284;51.040;13.722;2023-08-30T11:40:03;99083.41;;;18.98;69.35
76448;BME280;65284;51.040;13.722;2023-08-30T11:42:32;99078.44;;;18.78;64.87
76448;BME280;65284;51.040;13.722;2023-08-30T11:44:59;99073.06;;;18.55;65.03
76448;BME280;65284;51.040;13.722;2023-08-30T11:47:26;99071.34;;;18.37;65.13
76448;BME280;65284;51.040;13.722;2023-08-30T11:49:55;99057.97;;;18.42;64.62
76448;BME280;65284;51.040;13.722;2023-08-30T11:52:23;99058.22;;;18.52;64.59
76448;BME280;65284;51.040;13.722;2023-08-30T11:54:51;99060.09;;;18.52;63.28
76448;BME280;65284;51.040;13.722;2023-08-30T11:57:17;99064.31;;;18.36;63.80
76448;BME280;65284;51.040;13.722;2023-08-30T11:59:44;99055.41;;;18.47;64.44
76448;BME280;65284;51.040;13.722;2023-08-30T12:02:12;99050.94;;;18.64;64.27
76448;BME280;65284;51.040;13.722;2023-08-30T12:04:41;99050.38;;;18.51;64.42
76448;BME280;65284;51.040;13.722;2023-08-30T12:07:08;99047.47;;;18.52;65.80
76448;BME280;65284;51.040;13.722;2023-08-30T12:09:35;99049.91;;;18.54;64.01
76448;BME280;65284;51.040;13.722;2023-08-30T12:12:14;99049.91;;;18.42;64.00
76448;BME280;65284;51.040;13.722;2023-08-30T12:14:41;99042.19;;;18.57;65.61
76448;BME280;65284;51.040;13.722;2023-08-30T12:17:08;99039.03;;;18.60;65.18
76448;BME280;65284;51.040;13.722;2023-08-30T12:19:35;99035.28;;;18.61;65.47
76448;BME280;65284;51.040;13.722;2023-08-30T12:22:04;99032.13;;;18.64;64.74
76448;BME280;65284;51.040;13.722;2023-08-30T12:24:44;99041.63;;;18.55;64.79
76448;BME280;65284;51.040;13.722;2023-08-30T12:27:11;99037.88;;;18.56;62.75
76448;BME280;65284;51.040;13.722;2023-08-30T12:29:37;99025.19;;;18.69;65.58
76448;BME280;65284;51.040;13.722;2023-08-30T12:32:04;99021.22;;;18.83;62.84
76448;BME280;65284;51.040;13.722;2023-08-30T12:34:31;99021.38;;;18.76;62.54
76448;BME280;65284;51.040;13.722;2023-08-30T12:36:57;99018.81;;;18.98;62.92
76448;BME280;65284;51.040;13.722;2023-08-30T12:39:27;99027.75;;;18.87;63.85
76448;BME280;65284;51.040;13.722;2023-08-30T12:41:54;99025.75;;;18.94;62.13
76448;BME280;65284;51.040;13.722;2023-08-30T12:44:22;99023.00;;;18.77;62.08
76448;BME280;65284;51.040;13.722;2023-08-30T12:46:48;99019.75;;;18.63;62.37
76448;BME280;65284;51.040;13.722;2023-08-30T12:49:15;99018.41;;;18.78;62.65
76448;BME280;65284;51.040;13.722;2023-08-30T12:51:41;99019.78;;;18.92;62.80
76448;BME280;65284;51.040;13.722;2023-08-30T12:54:07;99015.94;;;18.88;63.73